sensor_id;sensor_type;location;lat;lon;timestamp;P1;durP1;ratioP1;P2;durP2;ratioP2
20593;SDS011;10455;48.732;10.266;2023-07-16T00:02:54;12.88;;;8.85;;
20593;SDS011;10455;48.732;10.266;2023-07-16T00:07:57;13.32;;;9.43;;
20593;SDS011;10455;48.732;10.266;2023-07-16T00:12:59;10.27;;;7.20;;
20593;SDS011;10455;48.732;10.266;2023-07-16T00:18:01;15.45;;;6.75;;
20593;SDS011;10455;48.732;10.266;2023-07-16T00:23:04;0.10;;;0.10;;
20593;SDS011;10455;48.732;10.266;2023-07-16T00:28:06;0.00;;;0.00;;
20593;SDS011;10455;48.732;10.266;2023-07-16T00:33:08;0.10;;;0.10;;
20593;SDS011;10455;48.732;10.266;2023-07-16T00:38:11;0.40;;;0.40;;
20593;SDS011;10455;48.732;10.266;2023-07-16T00:43:13;0.00;;;0.00;;
20593;SDS011;10455;48.732;10.266;2023-07-16T00:48:15;0.00;;;0.00;;
20593;SDS011;10455;48.732;10.266;2023-07-16T00:53:19;1.17;;;0.47;;
20593;SDS011;10455;48.732;10.266;2023-07-16T00:58:21;0.10;;;0.10;;
20593;SDS011;10455;48.732;10.266;2023-07-16T01:03:23;0.10;;;0.10;;
20593;SDS011;10455;48.732;10.266;2023-07-16T01:08:30;0.65;;;0.65;;
20593;SDS011;10455;48.732;10.266;2023-07-16T01:13:34;2.42;;;2.22;;
20593;SDS011;10455;48.732;10.266;2023-07-16T01:18:36;0.00;;;0.00;;
20593;SDS011;10455;48.732;10.266;2023-07-16T01:23:43;0.10;;;0.10;;
20593;SDS011;10455;48.732;10.266;2023-07-16T01:29:16;0.10;;;0.10;;
20593;SDS011;10455;48.732;10.266;2023-07-16T01:34:27;0.10;;;0.10;;
20593;SDS011;10455;48.732;10.266;2023-07-16T01:39:33;0.10;;;0.10;;
20593;SDS011;10455;48.732;10.266;2023-07-16T01:44:36;0.10;;;0.10;;
20593;SDS011;10455;48.732;10.266;2023-07-16T01:49:38;0.00;;;0.00;;
20593;SDS011;10455;48.732;10.266;2023-07-16T01:54:41;0.10;;;0.10;;
20593;SDS011;10455;48.732;10.266;2023-07-16T01:59:44;0.10;;;0.10;;
20593;SDS011;10455;48.732;10.266;2023-07-16T02:04:47;0.08;;;0.08;;
20593;SDS011;10455;48.732;10.266;2023-07-16T02:09:49;0.03;;;0.03;;
20593;SDS011;10455;48.732;10.266;2023-07-16T02:14:52;0.00;;;0.00;;
20593;SDS011;10455;48.732;10.266;2023-07-16T02:19:54;0.00;;;0.00;;
20593;SDS011;10455;48.732;10.266;2023-07-16T02:24:56;0.00;;;0.00;;
20593;SDS011;10455;48.732;10.266;2023-07-16T02:29:59;0.10;;;0.10;;
20593;SDS011;10455;48.732;10.266;2023-07-16T02:35:01;0.10;;;0.10;;
20593;SDS011;10455;48.732;10.266;2023-07-16T02:40:03;0.10;;;0.10;;
20593;SDS011;10455;48.732;10.266;2023-07-16T02:45:08;0.00;;;0.00;;
20593;SDS011;10455;48.732;10.266;2023-07-16T02:50:11;0.10;;;0.10;;
20593;SDS011;10455;48.732;10.266;2023-07-16T02:55:13;0.20;;;0.20;;
20593;SDS011;10455;48.732;10.266;2023-07-16T03:00:16;0.10;;;0.10;;
20593;SDS011;10455;48.732;10.266;2023-07-16T03:05:18;0.10;;;0.10;;
20593;SDS011;10455;48.732;10.266;2023-07-16T03:10:20;0.10;;;0.10;;
20593;SDS011;10455;48.732;10.266;2023-07-16T03:15:24;0.10;;;0.10;;
20593;SDS011;10455;48.732;10.266;2023-07-16T03:20:26;0.10;;;0.10;;
20593;SDS011;10455;48.732;10.266;2023-07-16T03:25:28;0.10;;;0.10;;
20593;SDS011;10455;48.732;10.266;2023-07-16T03:30:31;0.10;;;0.10;;
20593;SDS011;10455;48.732;10.266;2023-07-16T03:35:33;0.20;;;0.20;;
20593;SDS011;10455;48.732;10.266;2023-07-16T03:40:35;0.10;;;0.10;;
20593;SDS011;10455;48.732;10.266;2023-07-16T03:45:38;0.08;;;0.08;;
20593;SDS011;10455;48.732;10.266;2023-07-16T03:50:40;0.10;;;0.10;;
20593;SDS011;10455;48.732;10.266;2023-07-16T03:55:42;0.10;;;0.10;;
20593;SDS011;10455;48.732;10.266;2023-07-16T04:00:45;0.10;;;0.10;;
20593;SDS011;10455;48.732;10.266;2023-07-16T04:05:47;0.00;;;0.00;;
20593;SDS011;10455;48.732;10.266;2023-07-16T04:10:49;0.10;;;0.10;;
20593;SDS011;10455;48.732;10.266;2023-07-16T04:15:52;0.28;;;0.28;;
20593;SDS011;10455;48.732;10.266;2023-07-16T04:20:55;0.10;;;0.10;;
20593;SDS011;10455;48.732;10.266;2023-07-16T04:25:57;0.10;;;0.10;;
20593;SDS011;10455;48.732;10.266;2023-07-16T04:31:00;0.10;;;0.10;;
20593;SDS011;10455;48.732;10.266;2023-07-16T04:36:02;0.10;;;0.10;;
20593;SDS011;10455;48.732;10.266;2023-07-16T04:41:05;0.10;;;0.10;;
20593;SDS011;10455;48.732;10.266;2023-07-16T04:46:08;0.10;;;0.10;;
20593;SDS011;10455;48.732;10.266;2023-07-16T04:51:11;0.10;;;0.10;;
20593;SDS011;10455;48.732;10.266;2023-07-16T04:56:13;0.10;;;0.10;;
20593;SDS011;10455;48.732;10.266;2023-07-16T05:01:17;0.10;;;0.10;;
20593;SDS011;10455;48.732;10.266;2023-07-16T05:06:20;0.10;;;0.10;;
20593;SDS011;10455;48.732;10.266;2023-07-16T05:11:22;0.10;;;0.10;;
20593;SDS011;10455;48.732;10.266;2023-07-16T05:16:27;0.10;;;0.10;;
20593;SDS011;10455;48.732;10.266;2023-07-16T05:21:28;0.10;;;0.10;;
20593;SDS011;10455;48.732;10.266;2023-07-16T05:26:30;0.10;;;0.10;;
20593;SDS011;10455;48.732;10.266;2023-07-16T05:31:34;0.10;;;0.10;;
20593;SDS011;10455;48.732;10.266;2023-07-16T05:36:36;0.10;;;0.10;;
20593;SDS011;10455;48.732;10.266;2023-07-16T05:41:38;0.15;;;0.15;;
20593;SDS011;10455;48.732;10.266;2023-07-16T05:46:42;0.10;;;0.10;;
20593;SDS011;10455;48.732;10.266;2023-07-16T05:51:44;0.10;;;0.10;;
20593;SDS011;10455;48.732;10.266;2023-07-16T05:56:46;6.55;;;1.40;;
20593;SDS011;10455;48.732;10.266;2023-07-16T06:01:49;0.20;;;0.20;;
20593;SDS011;10455;48.732;10.266;2023-07-16T06:06:51;0.10;;;0.10;;
20593;SDS011;10455;48.732;10.266;2023-07-16T06:11:53;0.10;;;0.10;;
20593;SDS011;10455;48.732;10.266;2023-07-16T06:16:56;0.10;;;0.10;;
20593;SDS011;10455;48.732;10.266;2023-07-16T06:21:58;0.10;;;0.10;;
20593;SDS011;10455;48.732;10.266;2023-07-16T06:27:00;0.15;;;0.15;;
20593;SDS011;10455;48.732;10.266;2023-07-16T06:32:03;0.10;;;0.10;;
20593;SDS011;10455;48.732;10.266;2023-07-16T06:37:06;0.20;;;0.20;;
20593;SDS011;10455;48.732;10.266;2023-07-16T06:42:07;0.10;;;0.10;;
20593;SDS011;10455;48.732;10.266;2023-07-16T06:47:11;0.40;;;0.40;;
20593;SDS011;10455;48.732;10.266;2023-07-16T06:52:19;0.20;;;0.20;;
20593;SDS011;10455;48.732;10.266;2023-07-16T06:57:22;0.10;;;0.10;;
20593;SDS011;10455;48.732;10.266;2023-07-16T07:02:26;0.10;;;0.10;;
20593;SDS011;10455;48.732;10.266;2023-07-16T07:07:28;0.20;;;0.20;;
20593;SDS011;10455;48.732;10.266;2023-07-16T07:12:29;0.20;;;0.20;;
20593;SDS011;10455;48.732;10.266;2023-07-16T07:17:38;0.20;;;0.20;;
20593;SDS011;10455;48.732;10.266;2023-07-16T07:22:42;0.30;;;0.30;;
20593;SDS011;10455;48.732;10.266;2023-07-16T07:27:44;0.30;;;0.30;;
20593;SDS011;10455;48.732;10.266;2023-07-16T07:32:47;0.30;;;0.30;;
20593;SDS011;10455;48.732;10.266;2023-07-16T07:37:49;0.32;;;0.32;;
20593;SDS011;10455;48.732;10.266;2023-07-16T07:42:51;0.30;;;0.30;;
20593;SDS011;10455;48.732;10.266;2023-07-16T07:47:54;0.30;;;0.30;;
20593;SDS011;10455;48.732;10.266;2023-07-16T07:52:56;0.30;;;0.30;;
20593;SDS011;10455;48.732;10.266;2023-07-16T07:57:58;0.30;;;0.30;;
20593;SDS011;10455;48.732;10.266;2023-07-16T08:03:01;0.40;;;0.40;;
20593;SDS011;10455;48.732;10.266;2023-07-16T08:08:03;0.30;;;0.30;;
20593;SDS011;10455;48.732;10.266;2023-07-16T08:13:05;0.30;;;0.30;;
20593;SDS011;10455;48.732;10.266;2023-07-16T08:18:09;0.30;;;0.30;;
20593;SDS011;10455;48.732;10.266;2023-07-16T08:23:11;0.30;;;0.30;;
20593;SDS011;10455;48.732;10.266;2023-07-16T08:28:13;0.30;;;0.30;;
20593;SDS011;10455;48.732;10.266;2023-07-16T08:33:17;0.30;;;0.30;;
20593;SDS011;10455;48.732;10.266;2023-07-16T08:38:19;0.40;;;0.40;;
20593;SDS011;10455;48.732;10.266;2023-07-16T08:43:21;0.40;;;0.40;;
20593;SDS011;10455;48.732;10.266;2023-07-16T08:48:24;4.15;;;1.13;;
20593;SDS011;10455;48.732;10.266;2023-07-16T08:53:29;0.50;;;0.50;;
20593;SDS011;10455;48.732;10.266;2023-07-16T08:58:31;0.45;;;0.45;;
20593;SDS011;10455;48.732;10.266;2023-07-16T09:03:34;0.50;;;0.50;;
20593;SDS011;10455;48.732;10.266;2023-07-16T09:08:36;1.42;;;1.33;;
20593;SDS011;10455;48.732;10.266;2023-07-16T09:13:43;0.60;;;0.60;;
20593;SDS011;10455;48.732;10.266;2023-07-16T09:18:47;0.60;;;0.60;;
20593;SDS011;10455;48.732;10.266;2023-07-16T09:23:49;0.60;;;0.60;;
20593;SDS011;10455;48.732;10.266;2023-07-16T09:28:54;1.00;;;1.00;;
20593;SDS011;10455;48.732;10.266;2023-07-16T09:33:57;0.60;;;0.60;;
20593;SDS011;10455;48.732;10.266;2023-07-16T09:39:02;0.90;;;0.90;;
20593;SDS011;10455;48.732;10.266;2023-07-16T09:44:04;0.63;;;0.63;;
20593;SDS011;10455;48.732;10.266;2023-07-16T09:49:08;0.70;;;0.70;;
20593;SDS011;10455;48.732;10.266;2023-07-16T09:54:12;0.80;;;0.80;;
20593;SDS011;10455;48.732;10.266;2023-07-16T09:59:16;3.22;;;1.95;;
20593;SDS011;10455;48.732;10.266;2023-07-16T10:04:25;3.42;;;2.92;;
20593;SDS011;10455;48.732;10.266;2023-07-16T10:09:37;3.50;;;2.55;;
20593;SDS011;10455;48.732;10.266;2023-07-16T10:14:40;3.75;;;2.75;;
20593;SDS011;10455;48.732;10.266;2023-07-16T10:19:51;4.22;;;2.45;;
20593;SDS011;10455;48.732;10.266;2023-07-16T10:24:56;2.63;;;2.40;;
20593;SDS011;10455;48.732;10.266;2023-07-16T10:29:58;4.28;;;2.42;;
20593;SDS011;10455;48.732;10.266;2023-07-16T10:35:03;2.97;;;2.53;;
20593;SDS011;10455;48.732;10.266;2023-07-16T10:40:06;4.47;;;2.47;;
20593;SDS011;10455;48.732;10.266;2023-07-16T10:45:11;2.22;;;2.03;;
20593;SDS011;10455;48.732;10.266;2023-07-16T10:50:15;3.38;;;2.42;;
20593;SDS011;10455;48.732;10.266;2023-07-16T10:55:17;3.40;;;2.40;;
20593;SDS011;10455;48.732;10.266;2023-07-16T11:00:19;3.33;;;2.55;;
20593;SDS011;10455;48.732;10.266;2023-07-16T11:05:24;3.88;;;2.28;;
20593;SDS011;10455;48.732;10.266;2023-07-16T11:10:27;2.65;;;2.40;;
20593;SDS011;10455;48.732;10.266;2023-07-16T11:15:31;4.20;;;2.08;;
20593;SDS011;10455;48.732;10.266;2023-07-16T11:20:34;3.60;;;2.40;;
20593;SDS011;10455;48.732;10.266;2023-07-16T11:25:36;2.45;;;2.22;;
20593;SDS011;10455;48.732;10.266;2023-07-16T11:30:38;2.20;;;2.05;;
20593;SDS011;10455;48.732;10.266;2023-07-16T11:35:41;3.55;;;2.20;;
20593;SDS011;10455;48.732;10.266;2023-07-16T11:40:43;3.78;;;2.17;;
20593;SDS011;10455;48.732;10.266;2023-07-16T11:45:47;1.92;;;1.80;;
20593;SDS011;10455;48.732;10.266;2023-07-16T11:50:51;3.40;;;2.20;;
20593;SDS011;10455;48.732;10.266;2023-07-16T11:55:53;3.40;;;2.05;;
20593;SDS011;10455;48.732;10.266;2023-07-16T12:00:54;2.50;;;2.28;;
20593;SDS011;10455;48.732;10.266;2023-07-16T12:05:58;2.97;;;2.33;;
20593;SDS011;10455;48.732;10.266;2023-07-16T12:10:59;2.55;;;2.35;;
20593;SDS011;10455;48.732;10.266;2023-07-16T12:16:01;3.42;;;2.20;;
20593;SDS011;10455;48.732;10.266;2023-07-16T12:21:05;3.47;;;2.10;;
20593;SDS011;10455;48.732;10.266;2023-07-16T12:26:06;2.85;;;2.03;;
20593;SDS011;10455;48.732;10.266;2023-07-16T12:31:09;2.55;;;2.30;;
20593;SDS011;10455;48.732;10.266;2023-07-16T12:36:12;2.70;;;2.20;;
20593;SDS011;10455;48.732;10.266;2023-07-16T12:41:15;3.17;;;2.40;;
20593;SDS011;10455;48.732;10.266;2023-07-16T12:46:17;3.50;;;2.35;;
20593;SDS011;10455;48.732;10.266;2023-07-16T12:51:20;3.25;;;2.50;;
20593;SDS011;10455;48.732;10.266;2023-07-16T12:56:22;3.58;;;3.00;;
20593;SDS011;10455;48.732;10.266;2023-07-16T13:01:23;3.00;;;2.70;;
20593;SDS011;10455;48.732;10.266;2023-07-16T13:06:27;4.32;;;2.60;;
20593;SDS011;10455;48.732;10.266;2023-07-16T13:11:29;3.47;;;2.50;;
20593;SDS011;10455;48.732;10.266;2023-07-16T13:16:32;4.20;;;2.63;;
20593;SDS011;10455;48.732;10.266;2023-07-16T13:21:35;2.63;;;2.42;;
20593;SDS011;10455;48.732;10.266;2023-07-16T13:26:41;3.80;;;2.80;;
20593;SDS011;10455;48.732;10.266;2023-07-16T13:31:43;3.05;;;2.75;;
20593;SDS011;10455;48.732;10.266;2023-07-16T13:36:46;3.05;;;2.75;;
20593;SDS011;10455;48.732;10.266;2023-07-16T13:41:48;4.93;;;2.90;;
20593;SDS011;10455;48.732;10.266;2023-07-16T13:46:50;4.88;;;2.83;;
20593;SDS011;10455;48.732;10.266;2023-07-16T13:51:53;3.22;;;2.90;;
20593;SDS011;10455;48.732;10.266;2023-07-16T13:56:59;3.20;;;2.90;;
20593;SDS011;10455;48.732;10.266;2023-07-16T14:02:01;3.03;;;2.72;;
20593;SDS011;10455;48.732;10.266;2023-07-16T14:07:05;4.53;;;2.97;;
20593;SDS011;10455;48.732;10.266;2023-07-16T14:12:07;3.28;;;2.97;;
20593;SDS011;10455;48.732;10.266;2023-07-16T14:17:09;5.10;;;2.58;;
20593;SDS011;10455;48.732;10.266;2023-07-16T14:22:13;2.92;;;2.65;;
20593;SDS011;10455;48.732;10.266;2023-07-16T14:27:15;3.40;;;3.10;;
20593;SDS011;10455;48.732;10.266;2023-07-16T14:32:19;3.15;;;2.90;;
20593;SDS011;10455;48.732;10.266;2023-07-16T14:37:23;3.53;;;3.00;;
20593;SDS011;10455;48.732;10.266;2023-07-16T14:42:24;4.88;;;3.03;;
20593;SDS011;10455;48.732;10.266;2023-07-16T14:47:26;4.35;;;3.08;;
20593;SDS011;10455;48.732;10.266;2023-07-16T14:52:30;3.58;;;3.00;;
20593;SDS011;10455;48.732;10.266;2023-07-16T14:57:32;3.40;;;3.10;;
20593;SDS011;10455;48.732;10.266;2023-07-16T15:02:33;4.00;;;3.20;;
20593;SDS011;10455;48.732;10.266;2023-07-16T15:07:38;3.40;;;3.20;;
20593;SDS011;10455;48.732;10.266;2023-07-16T15:12:40;4.30;;;3.20;;
20593;SDS011;10455;48.732;10.266;2023-07-16T15:17:42;4.32;;;3.15;;
20593;SDS011;10455;48.732;10.266;2023-07-16T15:22:45;3.40;;;3.10;;
20593;SDS011;10455;48.732;10.266;2023-07-16T15:27:47;3.47;;;3.17;;
20593;SDS011;10455;48.732;10.266;2023-07-16T15:32:49;4.50;;;3.00;;
20593;SDS011;10455;48.732;10.266;2023-07-16T15:37:52;3.10;;;2.80;;
20593;SDS011;10455;48.732;10.266;2023-07-16T15:42:56;3.60;;;3.30;;
20593;SDS011;10455;48.732;10.266;2023-07-16T15:47:58;3.33;;;3.03;;
20593;SDS011;10455;48.732;10.266;2023-07-16T15:53:02;5.38;;;3.08;;
20593;SDS011;10455;48.732;10.266;2023-07-16T15:58:04;3.40;;;3.10;;
20593;SDS011;10455;48.732;10.266;2023-07-16T16:03:06;3.20;;;2.72;;
20593;SDS011;10455;48.732;10.266;2023-07-16T16:08:13;3.17;;;2.88;;
20593;SDS011;10455;48.732;10.266;2023-07-16T16:13:16;3.35;;;3.03;;
20593;SDS011;10455;48.732;10.266;2023-07-16T16:18:18;3.13;;;2.90;;
20593;SDS011;10455;48.732;10.266;2023-07-16T16:23:22;3.25;;;2.88;;
20593;SDS011;10455;48.732;10.266;2023-07-16T16:28:24;3.78;;;2.90;;
20593;SDS011;10455;48.732;10.266;2023-07-16T16:33:25;5.10;;;2.90;;
20593;SDS011;10455;48.732;10.266;2023-07-16T16:38:29;3.53;;;2.92;;
20593;SDS011;10455;48.732;10.266;2023-07-16T16:43:30;4.03;;;3.50;;
20593;SDS011;10455;48.732;10.266;2023-07-16T16:48:32;5.82;;;5.25;;
20593;SDS011;10455;48.732;10.266;2023-07-16T16:53:37;5.10;;;3.63;;
20593;SDS011;10455;48.732;10.266;2023-07-16T16:58:40;3.17;;;2.97;;
20593;SDS011;10455;48.732;10.266;2023-07-16T17:03:42;3.53;;;3.22;;
20593;SDS011;10455;48.732;10.266;2023-07-16T17:08:45;5.07;;;3.25;;
20593;SDS011;10455;48.732;10.266;2023-07-16T17:13:47;3.90;;;3.53;;
20593;SDS011;10455;48.732;10.266;2023-07-16T17:18:49;3.88;;;3.58;;
20593;SDS011;10455;48.732;10.266;2023-07-16T17:23:52;4.40;;;3.63;;
20593;SDS011;10455;48.732;10.266;2023-07-16T17:28:54;3.53;;;3.22;;
20593;SDS011;10455;48.732;10.266;2023-07-16T17:33:56;4.13;;;3.35;;
20593;SDS011;10455;48.732;10.266;2023-07-16T17:38:59;3.65;;;3.35;;
20593;SDS011;10455;48.732;10.266;2023-07-16T17:44:02;3.42;;;3.20;;
20593;SDS011;10455;48.732;10.266;2023-07-16T17:49:04;3.55;;;3.25;;
20593;SDS011;10455;48.732;10.266;2023-07-16T17:54:07;3.40;;;3.20;;
20593;SDS011;10455;48.732;10.266;2023-07-16T17:59:09;3.88;;;3.10;;
20593;SDS011;10455;48.732;10.266;2023-07-16T18:04:11;6.00;;;3.50;;
20593;SDS011;10455;48.732;10.266;2023-07-16T18:09:14;4.32;;;3.67;;
20593;SDS011;10455;48.732;10.266;2023-07-16T18:14:16;3.92;;;3.55;;
20593;SDS011;10455;48.732;10.266;2023-07-16T18:19:18;3.60;;;3.30;;
20593;SDS011;10455;48.732;10.266;2023-07-16T18:24:22;3.95;;;3.33;;
20593;SDS011;10455;48.732;10.266;2023-07-16T18:29:24;3.60;;;3.30;;
20593;SDS011;10455;48.732;10.266;2023-07-16T18:34:26;4.07;;;3.78;;
20593;SDS011;10455;48.732;10.266;2023-07-16T18:39:29;4.22;;;3.83;;
20593;SDS011;10455;48.732;10.266;2023-07-16T18:44:31;4.05;;;3.75;;
20593;SDS011;10455;48.732;10.266;2023-07-16T18:49:33;3.97;;;3.67;;
20593;SDS011;10455;48.732;10.266;2023-07-16T18:54:37;3.83;;;3.53;;
20593;SDS011;10455;48.732;10.266;2023-07-16T18:59:39;4.18;;;3.88;;
20593;SDS011;10455;48.732;10.266;2023-07-16T19:04:40;3.78;;;3.40;;
20593;SDS011;10455;48.732;10.266;2023-07-16T19:09:44;3.80;;;3.50;;
20593;SDS011;10455;48.732;10.266;2023-07-16T19:14:46;4.60;;;3.55;;
20593;SDS011;10455;48.732;10.266;2023-07-16T19:19:47;5.68;;;4.30;;
20593;SDS011;10455;48.732;10.266;2023-07-16T19:24:56;4.72;;;4.32;;
20593;SDS011;10455;48.732;10.266;2023-07-16T19:29:58;4.65;;;4.25;;
20593;SDS011;10455;48.732;10.266;2023-07-16T19:35:01;4.88;;;4.30;;
20593;SDS011;10455;48.732;10.266;2023-07-16T19:40:06;5.03;;;4.53;;
20593;SDS011;10455;48.732;10.266;2023-07-16T19:45:10;4.75;;;4.20;;
20593;SDS011;10455;48.732;10.266;2023-07-16T19:50:17;4.50;;;4.10;;
20593;SDS011;10455;48.732;10.266;2023-07-16T19:55:20;4.80;;;4.40;;
20593;SDS011;10455;48.732;10.266;2023-07-16T20:00:23;7.97;;;5.18;;
20593;SDS011;10455;48.732;10.266;2023-07-16T20:05:25;5.30;;;4.80;;
20593;SDS011;10455;48.732;10.266;2023-07-16T20:10:29;6.13;;;4.90;;
20593;SDS011;10455;48.732;10.266;2023-07-16T20:15:32;5.22;;;4.82;;
20593;SDS011;10455;48.732;10.266;2023-07-16T20:20:35;5.38;;;4.65;;
20593;SDS011;10455;48.732;10.266;2023-07-16T20:25:39;8.77;;;5.43;;
20593;SDS011;10455;48.732;10.266;2023-07-16T20:30:42;5.43;;;4.93;;
20593;SDS011;10455;48.732;10.266;2023-07-16T20:35:44;5.40;;;4.90;;
20593;SDS011;10455;48.732;10.266;2023-07-16T20:40:47;5.45;;;4.72;;
20593;SDS011;10455;48.732;10.266;2023-07-16T20:45:56;5.65;;;5.15;;
20593;SDS011;10455;48.732;10.266;2023-07-16T20:50:58;5.70;;;5.20;;
20593;SDS011;10455;48.732;10.266;2023-07-16T20:56:01;6.68;;;5.35;;
20593;SDS011;10455;48.732;10.266;2023-07-16T21:01:04;6.28;;;5.40;;
20593;SDS011;10455;48.732;10.266;2023-07-16T21:06:06;6.88;;;5.80;;
20593;SDS011;10455;48.732;10.266;2023-07-16T21:11:09;7.30;;;5.95;;
20593;SDS011;10455;48.732;10.266;2023-07-16T21:16:11;6.68;;;5.97;;
20593;SDS011;10455;48.732;10.266;2023-07-16T21:21:15;7.18;;;6.50;;
20593;SDS011;10455;48.732;10.266;2023-07-16T21:26:19;11.73;;;6.25;;
20593;SDS011;10455;48.732;10.266;2023-07-16T21:31:21;7.35;;;6.72;;
20593;SDS011;10455;48.732;10.266;2023-07-16T21:36:22;7.38;;;6.68;;
20593;SDS011;10455;48.732;10.266;2023-07-16T21:41:26;8.32;;;6.57;;
20593;SDS011;10455;48.732;10.266;2023-07-16T21:46:28;8.38;;;7.20;;
20593;SDS011;10455;48.732;10.266;2023-07-16T21:51:30;9.15;;;7.55;;
20593;SDS011;10455;48.732;10.266;2023-07-16T21:56:46;8.20;;;7.50;;
20593;SDS011;10455;48.732;10.266;2023-07-16T22:01:50;8.10;;;7.30;;
20593;SDS011;10455;48.732;10.266;2023-07-16T22:06:51;7.30;;;6.70;;
20593;SDS011;10455;48.732;10.266;2023-07-16T22:11:55;8.00;;;7.20;;
20593;SDS011;10455;48.732;10.266;2023-07-16T22:16:57;9.35;;;7.75;;
20593;SDS011;10455;48.732;10.266;2023-07-16T22:21:59;8.30;;;7.50;;
20593;SDS011;10455;48.732;10.266;2023-07-16T22:27:04;7.75;;;7.10;;
20593;SDS011;10455;48.732;10.266;2023-07-16T22:32:06;8.23;;;7.63;;
20593;SDS011;10455;48.732;10.266;2023-07-16T22:37:09;10.10;;;7.60;;
20593;SDS011;10455;48.732;10.266;2023-07-16T22:42:13;8.32;;;7.53;;
20593;SDS011;10455;48.732;10.266;2023-07-16T22:47:15;7.65;;;6.90;;
20593;SDS011;10455;48.732;10.266;2023-07-16T22:52:17;8.18;;;7.40;;
20593;SDS011;10455;48.732;10.266;2023-07-16T22:57:21;7.65;;;6.95;;
20593;SDS011;10455;48.732;10.266;2023-07-16T23:02:24;8.80;;;6.45;;
20593;SDS011;10455;48.732;10.266;2023-07-16T23:07:26;9.98;;;6.55;;
20593;SDS011;10455;48.732;10.266;2023-07-16T23:12:29;7.30;;;6.35;;
20593;SDS011;10455;48.732;10.266;2023-07-16T23:17:31;8.82;;;6.15;;
20593;SDS011;10455;48.732;10.266;2023-07-16T23:22:33;7.53;;;6.20;;
20593;SDS011;10455;48.732;10.266;2023-07-16T23:27:39;7.05;;;6.28;;
20593;SDS011;10455;48.732;10.266;2023-07-16T23:32:41;7.72;;;6.30;;
20593;SDS011;10455;48.732;10.266;2023-07-16T23:37:43;7.15;;;6.15;;
20593;SDS011;10455;48.732;10.266;2023-07-16T23:42:46;6.88;;;6.18;;
20593;SDS011;10455;48.732;10.266;2023-07-16T23:47:49;7.70;;;6.10;;
20593;SDS011;10455;48.732;10.266;2023-07-16T23:52:51;7.72;;;6.15;;
20593;SDS011;10455;48.732;10.266;2023-07-16T23:57:59;9.07;;;6.60;;
